sensor_id;sensor_type;location;lat;lon;timestamp;temperature;humidity
17128;DHT22;8679;50.842;4.322;2023-05-10T00:02:09;13.00;99.90
17128;DHT22;8679;50.842;4.322;2023-05-10T00:04:35;12.90;99.90
17128;DHT22;8679;50.842;4.322;2023-05-10T00:07:00;12.90;99.90
17128;DHT22;8679;50.842;4.322;2023-05-10T00:09:27;13.00;99.90
17128;DHT22;8679;50.842;4.322;2023-05-10T00:11:52;13.00;99.90
17128;DHT22;8679;50.842;4.322;2023-05-10T00:14:18;13.00;99.90
17128;DHT22;8679;50.842;4.322;2023-05-10T00:16:44;13.00;99.90
17128;DHT22;8679;50.842;4.322;2023-05-10T00:19:10;13.00;99.90
17128;DHT22;8679;50.842;4.322;2023-05-10T00:21:36;13.00;99.90
17128;DHT22;8679;50.842;4.322;2023-05-10T00:24:02;13.00;99.90
17128;DHT22;8679;50.842;4.322;2023-05-10T00:26:27;13.00;99.90
17128;DHT22;8679;50.842;4.322;2023-05-10T00:28:53;13.00;99.90
17128;DHT22;8679;50.842;4.322;2023-05-10T00:31:19;13.00;99.90
17128;DHT22;8679;50.842;4.322;2023-05-10T00:33:44;13.10;99.90
17128;DHT22;8679;50.842;4.322;2023-05-10T00:36:11;13.10;99.90
17128;DHT22;8679;50.842;4.322;2023-05-10T00:38:36;13.10;99.90
17128;DHT22;8679;50.842;4.322;2023-05-10T00:41:03;13.10;99.90
17128;DHT22;8679;50.842;4.322;2023-05-10T00:43:29;13.00;99.90
17128;DHT22;8679;50.842;4.322;2023-05-10T00:45:55;13.00;99.90
17128;DHT22;8679;50.842;4.322;2023-05-10T00:48:21;13.10;99.90
17128;DHT22;8679;50.842;4.322;2023-05-10T00:50:47;13.00;99.90
17128;DHT22;8679;50.842;4.322;2023-05-10T00:53:14;13.00;99.90
17128;DHT22;8679;50.842;4.322;2023-05-10T00:55:40;13.00;99.90
17128;DHT22;8679;50.842;4.322;2023-05-10T00:58:06;13.00;99.90
17128;DHT22;8679;50.842;4.322;2023-05-10T01:00:33;13.00;99.90
17128;DHT22;8679;50.842;4.322;2023-05-10T01:02:59;13.00;99.90
17128;DHT22;8679;50.842;4.322;2023-05-10T01:05:25;13.00;99.90
17128;DHT22;8679;50.842;4.322;2023-05-10T01:07:52;13.00;99.90
17128;DHT22;8679;50.842;4.322;2023-05-10T01:10:18;13.00;99.90
17128;DHT22;8679;50.842;4.322;2023-05-10T01:12:45;13.00;99.90
17128;DHT22;8679;50.842;4.322;2023-05-10T01:15:12;13.00;99.90
17128;DHT22;8679;50.842;4.322;2023-05-10T01:17:41;13.10;99.90
17128;DHT22;8679;50.842;4.322;2023-05-10T01:20:09;13.00;99.90
17128;DHT22;8679;50.842;4.322;2023-05-10T01:36:30;13.10;99.90
17128;DHT22;8679;50.842;4.322;2023-05-10T01:39:35;13.10;99.90
17128;DHT22;8679;50.842;4.322;2023-05-10T01:42:09;13.10;99.90
17128;DHT22;8679;50.842;4.322;2023-05-10T01:45:07;13.10;99.90
17128;DHT22;8679;50.842;4.322;2023-05-10T01:47:38;13.10;99.90
17128;DHT22;8679;50.842;4.322;2023-05-10T01:50:10;13.00;99.90
17128;DHT22;8679;50.842;4.322;2023-05-10T01:52:41;13.10;99.90
17128;DHT22;8679;50.842;4.322;2023-05-10T01:55:13;13.00;99.90
17128;DHT22;8679;50.842;4.322;2023-05-10T01:57:40;13.10;99.90
17128;DHT22;8679;50.842;4.322;2023-05-10T02:00:09;13.10;99.90
17128;DHT22;8679;50.842;4.322;2023-05-10T02:02:40;13.10;99.90
17128;DHT22;8679;50.842;4.322;2023-05-10T02:05:08;13.00;99.90
17128;DHT22;8679;50.842;4.322;2023-05-10T02:07:36;13.00;99.90
17128;DHT22;8679;50.842;4.322;2023-05-10T02:10:06;13.10;99.90
17128;DHT22;8679;50.842;4.322;2023-05-10T02:12:37;13.10;99.90
17128;DHT22;8679;50.842;4.322;2023-05-10T02:15:05;13.10;99.90
17128;DHT22;8679;50.842;4.322;2023-05-10T02:17:32;13.10;99.90
17128;DHT22;8679;50.842;4.322;2023-05-10T02:20:01;13.10;99.90
17128;DHT22;8679;50.842;4.322;2023-05-10T02:22:28;13.00;99.90
17128;DHT22;8679;50.842;4.322;2023-05-10T02:24:55;13.10;99.90
17128;DHT22;8679;50.842;4.322;2023-05-10T02:27:23;13.10;99.90
17128;DHT22;8679;50.842;4.322;2023-05-10T02:29:51;13.10;99.90
17128;DHT22;8679;50.842;4.322;2023-05-10T02:32:18;13.00;99.90
17128;DHT22;8679;50.842;4.322;2023-05-10T02:34:45;13.00;99.90
17128;DHT22;8679;50.842;4.322;2023-05-10T02:37:15;13.00;99.90
17128;DHT22;8679;50.842;4.322;2023-05-10T02:39:44;13.00;99.90
17128;DHT22;8679;50.842;4.322;2023-05-10T02:42:17;13.00;99.90
17128;DHT22;8679;50.842;4.322;2023-05-10T02:44:46;13.00;99.90
17128;DHT22;8679;50.842;4.322;2023-05-10T02:47:13;13.00;99.90
17128;DHT22;8679;50.842;4.322;2023-05-10T02:49:38;13.00;99.90
17128;DHT22;8679;50.842;4.322;2023-05-10T02:52:05;13.00;99.90
17128;DHT22;8679;50.842;4.322;2023-05-10T02:54:45;13.00;99.90
17128;DHT22;8679;50.842;4.322;2023-05-10T02:57:33;13.00;99.90
17128;DHT22;8679;50.842;4.322;2023-05-10T02:59:59;13.00;99.90
17128;DHT22;8679;50.842;4.322;2023-05-10T03:02:26;13.00;99.90
17128;DHT22;8679;50.842;4.322;2023-05-10T03:04:52;13.10;99.90
17128;DHT22;8679;50.842;4.322;2023-05-10T03:07:18;13.00;99.90
17128;DHT22;8679;50.842;4.322;2023-05-10T03:09:47;13.00;99.90
17128;DHT22;8679;50.842;4.322;2023-05-10T03:12:15;13.00;99.90
17128;DHT22;8679;50.842;4.322;2023-05-10T03:20:44;13.00;99.90
17128;DHT22;8679;50.842;4.322;2023-05-10T03:25:40;13.00;99.90
17128;DHT22;8679;50.842;4.322;2023-05-10T03:28:07;13.00;99.90
17128;DHT22;8679;50.842;4.322;2023-05-10T03:30:33;13.00;99.90
17128;DHT22;8679;50.842;4.322;2023-05-10T03:33:07;13.00;99.90
17128;DHT22;8679;50.842;4.322;2023-05-10T03:35:33;13.00;99.90
17128;DHT22;8679;50.842;4.322;2023-05-10T03:37:59;13.00;99.90
17128;DHT22;8679;50.842;4.322;2023-05-10T03:40:26;13.00;99.90
17128;DHT22;8679;50.842;4.322;2023-05-10T03:42:51;13.00;99.90
17128;DHT22;8679;50.842;4.322;2023-05-10T03:45:17;13.00;99.90
17128;DHT22;8679;50.842;4.322;2023-05-10T03:47:43;13.00;99.90
17128;DHT22;8679;50.842;4.322;2023-05-10T03:50:09;13.00;99.90
17128;DHT22;8679;50.842;4.322;2023-05-10T03:52:35;13.00;99.90
17128;DHT22;8679;50.842;4.322;2023-05-10T03:55:01;13.00;99.90
17128;DHT22;8679;50.842;4.322;2023-05-10T03:57:29;13.00;99.90
17128;DHT22;8679;50.842;4.322;2023-05-10T03:59:54;13.00;99.90
17128;DHT22;8679;50.842;4.322;2023-05-10T04:02:20;13.00;99.90
17128;DHT22;8679;50.842;4.322;2023-05-10T04:04:46;13.00;99.90
17128;DHT22;8679;50.842;4.322;2023-05-10T04:07:12;13.00;99.90
17128;DHT22;8679;50.842;4.322;2023-05-10T04:09:37;13.00;99.90
17128;DHT22;8679;50.842;4.322;2023-05-10T04:12:03;12.90;99.90
17128;DHT22;8679;50.842;4.322;2023-05-10T04:14:29;12.90;99.90
17128;DHT22;8679;50.842;4.322;2023-05-10T04:16:54;12.90;99.90
17128;DHT22;8679;50.842;4.322;2023-05-10T04:19:20;13.00;99.90
17128;DHT22;8679;50.842;4.322;2023-05-10T04:21:46;13.00;99.90
17128;DHT22;8679;50.842;4.322;2023-05-10T04:24:12;12.90;99.90
17128;DHT22;8679;50.842;4.322;2023-05-10T04:26:37;12.90;99.90
17128;DHT22;8679;50.842;4.322;2023-05-10T04:29:03;12.90;99.90
17128;DHT22;8679;50.842;4.322;2023-05-10T04:31:29;12.90;99.90
17128;DHT22;8679;50.842;4.322;2023-05-10T04:33:54;12.90;99.90
17128;DHT22;8679;50.842;4.322;2023-05-10T04:36:20;12.90;99.90
17128;DHT22;8679;50.842;4.322;2023-05-10T04:38:46;12.80;99.90
17128;DHT22;8679;50.842;4.322;2023-05-10T04:41:12;12.90;99.90
17128;DHT22;8679;50.842;4.322;2023-05-10T04:43:38;12.80;99.90
17128;DHT22;8679;50.842;4.322;2023-05-10T04:46:05;12.80;99.90
17128;DHT22;8679;50.842;4.322;2023-05-10T04:48:31;12.90;99.90
17128;DHT22;8679;50.842;4.322;2023-05-10T04:50:56;12.90;99.90
17128;DHT22;8679;50.842;4.322;2023-05-10T04:53:22;12.90;99.90
17128;DHT22;8679;50.842;4.322;2023-05-10T04:55:48;12.90;99.90
17128;DHT22;8679;50.842;4.322;2023-05-10T04:58:14;12.90;99.90
17128;DHT22;8679;50.842;4.322;2023-05-10T05:00:40;12.90;99.90
17128;DHT22;8679;50.842;4.322;2023-05-10T05:03:05;12.90;99.90
17128;DHT22;8679;50.842;4.322;2023-05-10T05:05:31;12.90;99.90
17128;DHT22;8679;50.842;4.322;2023-05-10T05:07:57;12.80;99.90
17128;DHT22;8679;50.842;4.322;2023-05-10T05:10:22;12.80;99.90
17128;DHT22;8679;50.842;4.322;2023-05-10T05:12:48;12.80;99.90
17128;DHT22;8679;50.842;4.322;2023-05-10T05:15:14;12.70;99.90
17128;DHT22;8679;50.842;4.322;2023-05-10T05:17:43;12.60;99.90
17128;DHT22;8679;50.842;4.322;2023-05-10T05:20:09;12.60;99.90
17128;DHT22;8679;50.842;4.322;2023-05-10T05:22:36;12.50;99.90
17128;DHT22;8679;50.842;4.322;2023-05-10T05:25:02;12.50;99.90
17128;DHT22;8679;50.842;4.322;2023-05-10T05:27:29;12.50;99.90
17128;DHT22;8679;50.842;4.322;2023-05-10T05:29:58;12.40;99.90
17128;DHT22;8679;50.842;4.322;2023-05-10T05:32:24;12.50;99.90
17128;DHT22;8679;50.842;4.322;2023-05-10T05:34:50;12.50;99.90
17128;DHT22;8679;50.842;4.322;2023-05-10T05:37:18;12.50;99.90
17128;DHT22;8679;50.842;4.322;2023-05-10T05:39:44;12.50;99.90
17128;DHT22;8679;50.842;4.322;2023-05-10T05:42:11;12.40;99.90
17128;DHT22;8679;50.842;4.322;2023-05-10T05:44:37;12.40;99.90
17128;DHT22;8679;50.842;4.322;2023-05-10T05:47:03;12.40;99.90
17128;DHT22;8679;50.842;4.322;2023-05-10T05:49:29;12.40;99.90
17128;DHT22;8679;50.842;4.322;2023-05-10T05:52:02;12.40;99.90
17128;DHT22;8679;50.842;4.322;2023-05-10T05:54:29;12.50;99.90
17128;DHT22;8679;50.842;4.322;2023-05-10T05:56:58;12.50;99.90
17128;DHT22;8679;50.842;4.322;2023-05-10T05:59:24;12.50;99.90
17128;DHT22;8679;50.842;4.322;2023-05-10T06:01:50;12.60;99.90
17128;DHT22;8679;50.842;4.322;2023-05-10T06:04:16;12.60;99.90
17128;DHT22;8679;50.842;4.322;2023-05-10T06:06:42;12.50;99.90
17128;DHT22;8679;50.842;4.322;2023-05-10T06:09:08;12.50;99.90
17128;DHT22;8679;50.842;4.322;2023-05-10T06:11:35;12.50;99.90
17128;DHT22;8679;50.842;4.322;2023-05-10T06:14:01;12.50;99.90
17128;DHT22;8679;50.842;4.322;2023-05-10T06:16:27;12.50;99.90
17128;DHT22;8679;50.842;4.322;2023-05-10T06:18:53;12.50;99.90
17128;DHT22;8679;50.842;4.322;2023-05-10T06:21:19;12.50;99.90
17128;DHT22;8679;50.842;4.322;2023-05-10T06:23:45;12.50;99.90
17128;DHT22;8679;50.842;4.322;2023-05-10T06:26:10;12.50;99.90
17128;DHT22;8679;50.842;4.322;2023-05-10T06:28:36;12.50;99.90
17128;DHT22;8679;50.842;4.322;2023-05-10T06:31:05;12.50;99.90
17128;DHT22;8679;50.842;4.322;2023-05-10T06:33:32;12.50;99.90
17128;DHT22;8679;50.842;4.322;2023-05-10T06:35:57;12.40;99.90
17128;DHT22;8679;50.842;4.322;2023-05-10T06:38:23;12.40;99.90
17128;DHT22;8679;50.842;4.322;2023-05-10T06:40:49;12.40;99.90
17128;DHT22;8679;50.842;4.322;2023-05-10T06:43:14;12.40;99.90
17128;DHT22;8679;50.842;4.322;2023-05-10T06:45:40;12.40;99.90
17128;DHT22;8679;50.842;4.322;2023-05-10T06:48:06;12.40;99.90
17128;DHT22;8679;50.842;4.322;2023-05-10T06:50:33;12.40;99.90
17128;DHT22;8679;50.842;4.322;2023-05-10T06:52:59;12.50;99.90
17128;DHT22;8679;50.842;4.322;2023-05-10T06:55:25;12.40;99.90
17128;DHT22;8679;50.842;4.322;2023-05-10T06:57:51;12.40;99.90
17128;DHT22;8679;50.842;4.322;2023-05-10T07:00:18;12.40;99.90
17128;DHT22;8679;50.842;4.322;2023-05-10T07:02:44;12.40;99.90
17128;DHT22;8679;50.842;4.322;2023-05-10T07:05:10;12.40;99.90
17128;DHT22;8679;50.842;4.322;2023-05-10T07:07:37;12.40;99.90
17128;DHT22;8679;50.842;4.322;2023-05-10T07:10:03;12.40;99.90
17128;DHT22;8679;50.842;4.322;2023-05-10T07:12:29;12.40;99.90
17128;DHT22;8679;50.842;4.322;2023-05-10T07:14:54;12.40;99.90
17128;DHT22;8679;50.842;4.322;2023-05-10T07:17:20;12.40;99.90
17128;DHT22;8679;50.842;4.322;2023-05-10T07:19:46;12.40;99.90
17128;DHT22;8679;50.842;4.322;2023-05-10T07:22:11;12.40;99.90
17128;DHT22;8679;50.842;4.322;2023-05-10T07:24:37;12.40;99.90
17128;DHT22;8679;50.842;4.322;2023-05-10T07:27:03;12.30;99.90
17128;DHT22;8679;50.842;4.322;2023-05-10T07:29:30;12.30;99.90
17128;DHT22;8679;50.842;4.322;2023-05-10T07:31:55;12.20;99.90
17128;DHT22;8679;50.842;4.322;2023-05-10T07:34:21;12.30;99.90
17128;DHT22;8679;50.842;4.322;2023-05-10T07:36:47;12.30;99.90
17128;DHT22;8679;50.842;4.322;2023-05-10T07:39:13;12.30;99.90
17128;DHT22;8679;50.842;4.322;2023-05-10T07:41:38;12.40;99.90
17128;DHT22;8679;50.842;4.322;2023-05-10T07:44:05;12.40;99.90
17128;DHT22;8679;50.842;4.322;2023-05-10T07:46:31;12.50;99.90
17128;DHT22;8679;50.842;4.322;2023-05-10T07:48:57;12.60;99.90
17128;DHT22;8679;50.842;4.322;2023-05-10T07:51:22;12.70;99.90
17128;DHT22;8679;50.842;4.322;2023-05-10T07:53:48;12.60;99.90
17128;DHT22;8679;50.842;4.322;2023-05-10T07:56:28;12.70;99.90
17128;DHT22;8679;50.842;4.322;2023-05-10T07:58:59;12.80;99.90
17128;DHT22;8679;50.842;4.322;2023-05-10T08:01:25;12.80;99.90
17128;DHT22;8679;50.842;4.322;2023-05-10T08:03:51;12.90;99.90
17128;DHT22;8679;50.842;4.322;2023-05-10T08:06:19;12.90;99.90
17128;DHT22;8679;50.842;4.322;2023-05-10T08:08:49;12.90;99.90
17128;DHT22;8679;50.842;4.322;2023-05-10T08:11:16;12.90;99.90
17128;DHT22;8679;50.842;4.322;2023-05-10T08:13:43;12.90;99.90
17128;DHT22;8679;50.842;4.322;2023-05-10T08:16:09;13.00;99.90
17128;DHT22;8679;50.842;4.322;2023-05-10T08:18:35;13.10;99.90
17128;DHT22;8679;50.842;4.322;2023-05-10T08:21:01;13.10;99.90
17128;DHT22;8679;50.842;4.322;2023-05-10T08:23:26;13.20;99.90
17128;DHT22;8679;50.842;4.322;2023-05-10T08:25:52;13.20;99.90
17128;DHT22;8679;50.842;4.322;2023-05-10T08:28:18;13.30;99.90
17128;DHT22;8679;50.842;4.322;2023-05-10T08:30:46;13.40;99.90
17128;DHT22;8679;50.842;4.322;2023-05-10T08:33:14;13.40;99.90
17128;DHT22;8679;50.842;4.322;2023-05-10T08:35:40;13.40;99.90
17128;DHT22;8679;50.842;4.322;2023-05-10T08:38:06;13.50;99.90
17128;DHT22;8679;50.842;4.322;2023-05-10T08:40:33;13.50;99.90
17128;DHT22;8679;50.842;4.322;2023-05-10T08:43:09;13.60;99.90
17128;DHT22;8679;50.842;4.322;2023-05-10T08:45:38;13.50;99.90
17128;DHT22;8679;50.842;4.322;2023-05-10T08:48:08;13.50;99.90
17128;DHT22;8679;50.842;4.322;2023-05-10T08:50:38;13.50;99.90
17128;DHT22;8679;50.842;4.322;2023-05-10T08:53:12;13.40;99.90
17128;DHT22;8679;50.842;4.322;2023-05-10T08:55:39;13.50;99.90
17128;DHT22;8679;50.842;4.322;2023-05-10T08:58:06;13.30;99.90
17128;DHT22;8679;50.842;4.322;2023-05-10T09:00:32;13.20;99.90
17128;DHT22;8679;50.842;4.322;2023-05-10T09:02:59;13.20;99.90
17128;DHT22;8679;50.842;4.322;2023-05-10T09:05:25;13.30;99.90
17128;DHT22;8679;50.842;4.322;2023-05-10T09:07:51;13.30;99.90
17128;DHT22;8679;50.842;4.322;2023-05-10T09:10:17;13.10;99.90
17128;DHT22;8679;50.842;4.322;2023-05-10T09:12:44;13.00;99.90
17128;DHT22;8679;50.842;4.322;2023-05-10T09:15:11;13.00;99.90
17128;DHT22;8679;50.842;4.322;2023-05-10T09:17:38;13.00;99.90
17128;DHT22;8679;50.842;4.322;2023-05-10T09:20:04;13.00;99.90
17128;DHT22;8679;50.842;4.322;2023-05-10T09:22:31;13.00;99.90
17128;DHT22;8679;50.842;4.322;2023-05-10T09:25:14;12.90;99.90
17128;DHT22;8679;50.842;4.322;2023-05-10T09:27:41;12.90;99.90
17128;DHT22;8679;50.842;4.322;2023-05-10T09:30:08;12.80;99.90
17128;DHT22;8679;50.842;4.322;2023-05-10T09:35:08;12.90;99.90
17128;DHT22;8679;50.842;4.322;2023-05-10T09:37:34;12.90;99.90
17128;DHT22;8679;50.842;4.322;2023-05-10T09:39:59;12.90;99.90
17128;DHT22;8679;50.842;4.322;2023-05-10T09:42:25;12.90;99.90
17128;DHT22;8679;50.842;4.322;2023-05-10T09:44:51;12.90;99.90
17128;DHT22;8679;50.842;4.322;2023-05-10T09:47:17;12.90;99.90
17128;DHT22;8679;50.842;4.322;2023-05-10T09:49:49;12.90;99.90
17128;DHT22;8679;50.842;4.322;2023-05-10T09:52:14;13.00;99.90
17128;DHT22;8679;50.842;4.322;2023-05-10T09:54:52;13.00;99.90
17128;DHT22;8679;50.842;4.322;2023-05-10T09:57:22;13.00;99.90
17128;DHT22;8679;50.842;4.322;2023-05-10T09:59:48;13.00;99.90
17128;DHT22;8679;50.842;4.322;2023-05-10T10:02:14;13.10;99.90
17128;DHT22;8679;50.842;4.322;2023-05-10T10:04:41;13.10;99.90
17128;DHT22;8679;50.842;4.322;2023-05-10T10:07:07;13.10;99.90
17128;DHT22;8679;50.842;4.322;2023-05-10T10:09:33;13.10;99.90
17128;DHT22;8679;50.842;4.322;2023-05-10T10:12:01;13.20;99.90
17128;DHT22;8679;50.842;4.322;2023-05-10T10:14:28;13.10;99.90
17128;DHT22;8679;50.842;4.322;2023-05-10T10:16:54;13.10;99.90
17128;DHT22;8679;50.842;4.322;2023-05-10T10:19:20;13.10;99.90
17128;DHT22;8679;50.842;4.322;2023-05-10T10:21:47;13.10;99.90
17128;DHT22;8679;50.842;4.322;2023-05-10T10:24:13;13.20;99.90
17128;DHT22;8679;50.842;4.322;2023-05-10T10:26:39;13.20;99.90
17128;DHT22;8679;50.842;4.322;2023-05-10T10:32:05;13.30;99.90
17128;DHT22;8679;50.842;4.322;2023-05-10T10:34:34;13.40;99.90
17128;DHT22;8679;50.842;4.322;2023-05-10T10:37:05;13.50;99.90
17128;DHT22;8679;50.842;4.322;2023-05-10T10:39:31;13.60;99.90
17128;DHT22;8679;50.842;4.322;2023-05-10T10:41:58;13.60;99.90
17128;DHT22;8679;50.842;4.322;2023-05-10T10:47:20;13.70;99.90
17128;DHT22;8679;50.842;4.322;2023-05-10T10:55:08;14.00;99.90
17128;DHT22;8679;50.842;4.322;2023-05-10T10:57:53;14.10;99.90
17128;DHT22;8679;50.842;4.322;2023-05-10T11:00:26;14.10;99.90
17128;DHT22;8679;50.842;4.322;2023-05-10T11:03:12;14.00;99.90
17128;DHT22;8679;50.842;4.322;2023-05-10T11:05:57;14.00;99.90
17128;DHT22;8679;50.842;4.322;2023-05-10T11:08:39;14.10;99.90
17128;DHT22;8679;50.842;4.322;2023-05-10T11:11:07;14.10;99.90
17128;DHT22;8679;50.842;4.322;2023-05-10T11:13:41;14.20;99.90
17128;DHT22;8679;50.842;4.322;2023-05-10T11:18:41;14.10;99.90
17128;DHT22;8679;50.842;4.322;2023-05-10T11:21:16;14.10;99.90
17128;DHT22;8679;50.842;4.322;2023-05-10T11:23:56;14.20;99.90
17128;DHT22;8679;50.842;4.322;2023-05-10T11:26:23;14.30;99.90
17128;DHT22;8679;50.842;4.322;2023-05-10T11:28:53;14.30;99.90
17128;DHT22;8679;50.842;4.322;2023-05-10T11:31:20;14.40;99.90
17128;DHT22;8679;50.842;4.322;2023-05-10T11:33:55;14.60;99.90
17128;DHT22;8679;50.842;4.322;2023-05-10T11:36:26;14.80;99.90
17128;DHT22;8679;50.842;4.322;2023-05-10T11:38:52;15.00;99.90
17128;DHT22;8679;50.842;4.322;2023-05-10T11:41:19;15.00;99.90
17128;DHT22;8679;50.842;4.322;2023-05-10T11:43:52;15.00;99.90
17128;DHT22;8679;50.842;4.322;2023-05-10T11:46:19;14.90;99.90
17128;DHT22;8679;50.842;4.322;2023-05-10T11:48:58;14.90;99.90
17128;DHT22;8679;50.842;4.322;2023-05-10T11:51:27;14.80;99.90
17128;DHT22;8679;50.842;4.322;2023-05-10T11:53:54;14.90;99.90
17128;DHT22;8679;50.842;4.322;2023-05-10T11:56:20;15.00;99.90
17128;DHT22;8679;50.842;4.322;2023-05-10T11:58:53;15.10;99.90
17128;DHT22;8679;50.842;4.322;2023-05-10T12:01:20;15.20;99.90
17128;DHT22;8679;50.842;4.322;2023-05-10T12:03:46;15.20;99.90
17128;DHT22;8679;50.842;4.322;2023-05-10T12:06:12;15.40;99.90
17128;DHT22;8679;50.842;4.322;2023-05-10T12:08:44;15.50;99.90
17128;DHT22;8679;50.842;4.322;2023-05-10T12:11:12;15.70;99.90
17128;DHT22;8679;50.842;4.322;2023-05-10T12:13:43;15.70;99.90
17128;DHT22;8679;50.842;4.322;2023-05-10T12:16:22;15.60;99.90
17128;DHT22;8679;50.842;4.322;2023-05-10T12:18:49;15.50;99.90
17128;DHT22;8679;50.842;4.322;2023-05-10T12:21:17;15.50;99.90
17128;DHT22;8679;50.842;4.322;2023-05-10T12:23:45;15.60;99.90
17128;DHT22;8679;50.842;4.322;2023-05-10T12:26:12;15.80;99.90
17128;DHT22;8679;50.842;4.322;2023-05-10T12:28:38;15.90;99.90
17128;DHT22;8679;50.842;4.322;2023-05-10T12:31:07;15.70;99.90
17128;DHT22;8679;50.842;4.322;2023-05-10T12:33:41;15.70;99.90
17128;DHT22;8679;50.842;4.322;2023-05-10T12:36:09;15.70;99.90
17128;DHT22;8679;50.842;4.322;2023-05-10T12:38:39;15.90;99.90
17128;DHT22;8679;50.842;4.322;2023-05-10T12:41:07;15.80;99.90
17128;DHT22;8679;50.842;4.322;2023-05-10T12:43:33;16.10;99.90
17128;DHT22;8679;50.842;4.322;2023-05-10T12:46:08;16.10;99.90
17128;DHT22;8679;50.842;4.322;2023-05-10T12:48:35;16.30;99.90
17128;DHT22;8679;50.842;4.322;2023-05-10T12:51:01;16.50;99.90
17128;DHT22;8679;50.842;4.322;2023-05-10T12:53:27;16.60;99.90
17128;DHT22;8679;50.842;4.322;2023-05-10T12:55:53;16.60;99.90
17128;DHT22;8679;50.842;4.322;2023-05-10T12:58:19;16.70;99.90
17128;DHT22;8679;50.842;4.322;2023-05-10T13:00:45;16.70;99.90
17128;DHT22;8679;50.842;4.322;2023-05-10T13:03:11;16.90;99.90
17128;DHT22;8679;50.842;4.322;2023-05-10T13:05:37;17.00;99.90
17128;DHT22;8679;50.842;4.322;2023-05-10T13:08:03;16.90;99.90
17128;DHT22;8679;50.842;4.322;2023-05-10T13:10:30;16.90;99.90
17128;DHT22;8679;50.842;4.322;2023-05-10T13:13:00;17.00;99.90
17128;DHT22;8679;50.842;4.322;2023-05-10T13:15:25;17.10;99.90
17128;DHT22;8679;50.842;4.322;2023-05-10T13:17:52;17.40;99.90
17128;DHT22;8679;50.842;4.322;2023-05-10T13:20:18;17.70;99.90
17128;DHT22;8679;50.842;4.322;2023-05-10T13:22:44;17.80;59.50
17128;DHT22;8679;50.842;4.322;2023-05-10T13:25:11;18.30;1.00
17128;DHT22;8679;50.842;4.322;2023-05-10T13:27:37;18.80;1.00
17128;DHT22;8679;50.842;4.322;2023-05-10T13:30:03;18.80;1.00
17128;DHT22;8679;50.842;4.322;2023-05-10T13:32:29;18.60;1.00
17128;DHT22;8679;50.842;4.322;2023-05-10T13:34:55;19.00;1.00
17128;DHT22;8679;50.842;4.322;2023-05-10T13:37:21;19.80;99.90
17128;DHT22;8679;50.842;4.322;2023-05-10T13:39:48;19.70;99.90
17128;DHT22;8679;50.842;4.322;2023-05-10T13:42:13;19.70;6.00
17128;DHT22;8679;50.842;4.322;2023-05-10T13:44:39;19.40;1.00
17128;DHT22;8679;50.842;4.322;2023-05-10T13:47:05;19.50;1.00
17128;DHT22;8679;50.842;4.322;2023-05-10T13:49:31;19.30;1.00
17128;DHT22;8679;50.842;4.322;2023-05-10T13:51:57;18.80;1.00
17128;DHT22;8679;50.842;4.322;2023-05-10T13:54:23;18.60;99.90
17128;DHT22;8679;50.842;4.322;2023-05-10T13:56:49;18.30;99.90
17128;DHT22;8679;50.842;4.322;2023-05-10T13:59:15;18.00;1.00
17128;DHT22;8679;50.842;4.322;2023-05-10T14:01:41;17.90;1.00
17128;DHT22;8679;50.842;4.322;2023-05-10T14:04:08;17.90;99.90
17128;DHT22;8679;50.842;4.322;2023-05-10T14:06:38;18.20;99.90
17128;DHT22;8679;50.842;4.322;2023-05-10T14:09:04;18.20;1.00
17128;DHT22;8679;50.842;4.322;2023-05-10T14:11:29;18.40;99.90
17128;DHT22;8679;50.842;4.322;2023-05-10T14:13:55;18.60;99.90
17128;DHT22;8679;50.842;4.322;2023-05-10T14:16:21;18.30;99.90
17128;DHT22;8679;50.842;4.322;2023-05-10T14:18:47;18.50;99.90
17128;DHT22;8679;50.842;4.322;2023-05-10T14:21:13;18.40;99.90
17128;DHT22;8679;50.842;4.322;2023-05-10T14:23:39;18.30;81.20
17128;DHT22;8679;50.842;4.322;2023-05-10T14:26:05;18.30;12.50
17128;DHT22;8679;50.842;4.322;2023-05-10T14:28:30;18.50;99.90
17128;DHT22;8679;50.842;4.322;2023-05-10T14:30:56;18.30;45.70
17128;DHT22;8679;50.842;4.322;2023-05-10T14:33:22;17.90;99.90
17128;DHT22;8679;50.842;4.322;2023-05-10T14:35:48;17.50;1.00
17128;DHT22;8679;50.842;4.322;2023-05-10T14:38:14;17.40;99.90
17128;DHT22;8679;50.842;4.322;2023-05-10T14:40:40;17.10;1.00
17128;DHT22;8679;50.842;4.322;2023-05-10T14:43:06;16.90;1.00
17128;DHT22;8679;50.842;4.322;2023-05-10T14:45:32;16.60;1.00
17128;DHT22;8679;50.842;4.322;2023-05-10T14:47:58;16.50;1.00
17128;DHT22;8679;50.842;4.322;2023-05-10T14:50:24;16.30;1.00
17128;DHT22;8679;50.842;4.322;2023-05-10T14:52:50;16.30;1.00
17128;DHT22;8679;50.842;4.322;2023-05-10T14:55:16;16.10;1.00
17128;DHT22;8679;50.842;4.322;2023-05-10T14:57:42;16.00;77.40
17128;DHT22;8679;50.842;4.322;2023-05-10T15:00:09;15.60;99.90
17128;DHT22;8679;50.842;4.322;2023-05-10T15:02:35;15.40;99.90
17128;DHT22;8679;50.842;4.322;2023-05-10T15:53:47;15.20;99.90
17128;DHT22;8679;50.842;4.322;2023-05-10T16:01:06;16.30;1.00
17128;DHT22;8679;50.842;4.322;2023-05-10T16:03:33;18.30;99.90
17128;DHT22;8679;50.842;4.322;2023-05-10T16:05:59;18.80;1.00
17128;DHT22;8679;50.842;4.322;2023-05-10T16:08:26;19.30;99.90
17128;DHT22;8679;50.842;4.322;2023-05-10T16:10:52;19.20;1.00
17128;DHT22;8679;50.842;4.322;2023-05-10T16:13:18;19.40;99.90
17128;DHT22;8679;50.842;4.322;2023-05-10T16:15:44;19.30;1.00
17128;DHT22;8679;50.842;4.322;2023-05-10T16:18:10;19.30;1.00
17128;DHT22;8679;50.842;4.322;2023-05-10T16:20:37;18.90;1.00
17128;DHT22;8679;50.842;4.322;2023-05-10T16:23:04;18.80;1.00
17128;DHT22;8679;50.842;4.322;2023-05-10T16:25:31;18.90;1.00
17128;DHT22;8679;50.842;4.322;2023-05-10T16:27:57;18.60;99.90
17128;DHT22;8679;50.842;4.322;2023-05-10T16:30:23;18.30;99.90
17128;DHT22;8679;50.842;4.322;2023-05-10T16:32:54;18.30;1.00
17128;DHT22;8679;50.842;4.322;2023-05-10T16:35:20;18.10;1.00
17128;DHT22;8679;50.842;4.322;2023-05-10T16:37:46;17.80;99.90
17128;DHT22;8679;50.842;4.322;2023-05-10T16:40:12;17.70;1.00
17128;DHT22;8679;50.842;4.322;2023-05-10T16:42:38;17.40;1.00
17128;DHT22;8679;50.842;4.322;2023-05-10T16:45:04;17.50;1.00
17128;DHT22;8679;50.842;4.322;2023-05-10T16:47:34;17.50;99.90
17128;DHT22;8679;50.842;4.322;2023-05-10T16:50:01;17.60;99.90
17128;DHT22;8679;50.842;4.322;2023-05-10T16:52:27;17.70;99.90
17128;DHT22;8679;50.842;4.322;2023-05-10T16:54:56;17.70;99.90
17128;DHT22;8679;50.842;4.322;2023-05-10T16:57:21;17.60;99.90
17128;DHT22;8679;50.842;4.322;2023-05-10T16:59:47;17.50;99.90
17128;DHT22;8679;50.842;4.322;2023-05-10T17:02:14;17.30;99.90
17128;DHT22;8679;50.842;4.322;2023-05-10T17:04:41;17.10;1.00
17128;DHT22;8679;50.842;4.322;2023-05-10T17:07:07;17.00;99.90
17128;DHT22;8679;50.842;4.322;2023-05-10T17:09:33;17.20;99.90
17128;DHT22;8679;50.842;4.322;2023-05-10T17:11:59;17.30;99.90
17128;DHT22;8679;50.842;4.322;2023-05-10T17:14:24;17.10;1.00
17128;DHT22;8679;50.842;4.322;2023-05-10T17:16:50;17.00;1.00
17128;DHT22;8679;50.842;4.322;2023-05-10T17:19:17;16.80;1.00
17128;DHT22;8679;50.842;4.322;2023-05-10T17:21:43;16.70;99.90